Milford, CT

3:42 AM EDT on July 08, 2015 (GMT -0400)
Cedarhurst | | Change Station
CLOSE
Current Station
Personal Weather Station
Location: Milford, CT
Elevation: 89 ft
Nearby Weather Stations

Elev 89 ft 41.24 °N, 73.05 °W | Updated 31 seconds ago

Clear
Clear
68.4 °F
Feels Like 68.4 °F
N
0.0
Wind Variable Wind from SW
Gusts 0.0 mph

Today
High -- | Low -- °F
--% Chance of Precip.
Yesterday
High -- | Low -- °F
Precip. -- in
5:27 AM 8:27 PM
Waning Gibbous, 56% visible
Pressure 29.93 in
Visibility 8.0 miles
Clouds Clear
Dew Point 65 °F
Humidity 89%
Rainfall 0.05 in
Snow Depth Not available.
UV 0 out of 12
Pollen 2.90 out of 12
Air Quality Not available.
Flu Activity Not available.
METAR KBDR 080652Z AUTO 21004KT 8SM CLR 23/21 A2993 RMK AO2 SLP133 T02330211

More Conditions Fewer Conditions

Pressure 29.93 in
Visibility 8.0 miles
Clouds Clear
Dew Point 65 °F
Humidity 89%
Rainfall 0.05 in
Snow Depth Not available.
UV 0 out of 12
Pollen 2.90 out of 12
Air Quality Not available.
Flu Activity Not available.
METAR KBDR 080652Z AUTO 21004KT 8SM CLR 23/21 A2993 RMK AO2 SLP133 T02330211

More Conditions Fewer Conditions

10-Day Weather Forecast

×

Almanac

Astronomy

Jul. 08, 2015 Rise Set
Actual Time
Civil Twilight
Nautical Twilight
Astronomical Twilight
Moon
Length of Visible Light
Length of Day
Tomorrow will be .
, % of the Moon is Illuminated

Today's Extremes

State Highs State Lows

Community

WunderPhotos

Upload Photos

1,836,064 photos uploaded!

WunderBlogs® & News

Nearby

Air Quality

  Air Quality AQ Index Pollutant
Not available.

Snow Depth

Station Depth Elevation

Earthquake Activity

City Distance Mag. Time & Date
Minimum magnitude displayed is 2.5.

Coastal Water Temperatures

Place Temperature

Stations

Nearby Weather Stations

Station Location Temp. Windchill Dew Point Humidity Wind Precip. Elev Updated Type